createdAt,value
2019-01-27T00:00:15.695Z,992.44
2019-01-27T00:01:15.680Z,992.39
2019-01-27T00:02:15.685Z,992.39
2019-01-27T00:03:15.658Z,992.38
2019-01-27T00:04:15.672Z,992.39
2019-01-27T00:05:15.635Z,992.36
2019-01-27T00:06:15.625Z,992.39
2019-01-27T00:07:15.635Z,992.34
2019-01-27T00:08:15.621Z,992.38
2019-01-27T00:09:15.599Z,992.33
2019-01-27T00:10:15.615Z,992.35
2019-01-27T00:11:15.605Z,992.39
2019-01-27T00:12:15.582Z,992.34
2019-01-27T00:13:15.553Z,992.33
2019-01-27T00:14:15.552Z,992.33
2019-01-27T00:15:15.549Z,992.30
2019-01-27T00:16:15.516Z,992.29
2019-01-27T00:17:15.505Z,992.33
2019-01-27T00:18:15.495Z,992.25
2019-01-27T00:19:15.484Z,992.30
2019-01-27T00:20:15.483Z,992.29
2019-01-27T00:21:15.463Z,992.27
2019-01-27T00:22:15.451Z,992.27
2019-01-27T00:23:15.439Z,992.23
2019-01-27T00:24:15.428Z,992.24
2019-01-27T00:25:15.423Z,992.25
2019-01-27T00:26:15.406Z,992.27
2019-01-27T00:27:15.395Z,992.23
2019-01-27T00:28:15.385Z,992.20
2019-01-27T00:29:15.401Z,992.21
2019-01-27T00:30:15.363Z,992.21
2019-01-27T00:31:15.352Z,992.20
2019-01-27T00:32:15.341Z,992.20
2019-01-27T00:33:15.329Z,992.19
2019-01-27T00:34:15.325Z,992.18
2019-01-27T00:35:15.310Z,992.19
2019-01-27T00:36:15.298Z,992.16
2019-01-27T00:37:15.284Z,992.18
2019-01-27T00:38:15.273Z,992.12
2019-01-27T00:39:15.262Z,992.10
2019-01-27T00:40:15.254Z,992.11
2019-01-27T00:41:15.242Z,992.07
2019-01-27T00:42:15.233Z,992.09
2019-01-27T00:43:15.219Z,992.07
2019-01-27T00:44:15.209Z,992.04
2019-01-27T00:45:15.198Z,992.00
2019-01-27T00:46:15.186Z,992.07
2019-01-27T00:47:15.175Z,992.06
2019-01-27T00:48:15.164Z,992.06
2019-01-27T00:49:15.155Z,992.00
2019-01-27T00:50:15.142Z,992.00
2019-01-27T00:51:15.130Z,992.05
2019-01-27T00:52:15.119Z,991.98
2019-01-27T00:53:15.112Z,992.00
2019-01-27T00:54:15.099Z,992.03
2019-01-27T00:55:15.089Z,991.95
2019-01-27T00:56:15.077Z,991.92
2019-01-27T00:57:15.066Z,991.89
2019-01-27T00:58:15.056Z,991.94
2019-01-27T00:59:15.044Z,991.90
2019-01-27T01:00:15.034Z,991.89
2019-01-27T01:01:15.020Z,991.88
2019-01-27T01:02:15.033Z,991.87
2019-01-27T01:03:14.998Z,991.88
2019-01-27T01:04:14.987Z,991.90
2019-01-27T01:05:14.978Z,991.85
2019-01-27T01:06:14.968Z,991.83
2019-01-27T01:07:14.955Z,991.84
2019-01-27T01:08:14.948Z,991.84
2019-01-27T01:09:14.934Z,991.89
2019-01-27T01:10:14.923Z,991.86
2019-01-27T01:11:14.917Z,991.84
2019-01-27T01:12:14.901Z,991.82
2019-01-27T01:13:14.892Z,991.80
2019-01-27T01:14:14.881Z,991.76
2019-01-27T01:15:14.868Z,991.77
2019-01-27T01:16:14.858Z,991.75
2019-01-27T01:17:14.845Z,991.72
2019-01-27T01:18:14.834Z,991.70
2019-01-27T01:19:14.825Z,991.62
2019-01-27T01:20:14.838Z,991.65
2019-01-27T01:21:14.803Z,991.65
2019-01-27T01:22:14.792Z,991.63
2019-01-27T01:23:14.787Z,991.65
2019-01-27T01:24:14.768Z,991.66
2019-01-27T01:25:14.758Z,991.60
2019-01-27T01:26:14.746Z,991.59
2019-01-27T01:27:14.736Z,991.56
2019-01-27T01:28:14.724Z,991.58
2019-01-27T01:29:14.721Z,991.56
2019-01-27T01:30:14.705Z,991.48
2019-01-27T01:31:14.692Z,991.44
2019-01-27T01:32:14.682Z,991.49
2019-01-27T01:33:14.670Z,991.48
2019-01-27T01:34:14.660Z,991.48
2019-01-27T01:35:14.648Z,991.46
2019-01-27T01:36:14.638Z,991.48
2019-01-27T01:37:14.626Z,991.43
2019-01-27T01:38:14.616Z,991.44
2019-01-27T01:39:14.606Z,991.45
2019-01-27T01:40:14.592Z,991.40
2019-01-27T01:41:14.583Z,991.40
2019-01-27T01:42:14.576Z,991.34
2019-01-27T01:43:14.561Z,991.33
2019-01-27T01:44:14.549Z,991.33
2019-01-27T01:45:14.540Z,991.34
2019-01-27T01:46:14.529Z,991.23
2019-01-27T01:47:14.515Z,991.22
2019-01-27T01:48:14.504Z,991.16
2019-01-27T01:49:14.495Z,991.11
2019-01-27T01:50:14.482Z,991.05
2019-01-27T01:51:14.474Z,991.04
2019-01-27T01:52:14.463Z,991.03
2019-01-27T01:53:14.453Z,990.99
2019-01-27T01:54:14.440Z,990.99
2019-01-27T01:55:14.430Z,990.96
2019-01-27T01:56:14.418Z,990.99
2019-01-27T01:57:14.406Z,990.92
2019-01-27T01:58:14.397Z,990.90
2019-01-27T01:59:14.384Z,990.88
2019-01-27T02:00:14.374Z,990.90
2019-01-27T02:01:14.365Z,990.91
2019-01-27T02:02:14.351Z,990.87
2019-01-27T02:03:14.341Z,990.86
2019-01-27T02:04:14.330Z,990.83
2019-01-27T02:05:14.319Z,990.81
2019-01-27T02:06:14.313Z,990.78
2019-01-27T02:07:14.304Z,990.77
2019-01-27T02:08:14.287Z,990.76
2019-01-27T02:09:14.276Z,990.78
2019-01-27T02:10:14.263Z,990.71
2019-01-27T02:11:14.253Z,990.72
2019-01-27T02:12:14.241Z,990.71
2019-01-27T02:13:14.231Z,990.72
2019-01-27T02:14:14.219Z,990.69
2019-01-27T02:15:14.210Z,990.65
2019-01-27T02:16:14.202Z,990.58
2019-01-27T02:17:14.195Z,990.60
2019-01-27T02:18:14.178Z,990.52
2019-01-27T02:19:14.165Z,990.54
2019-01-27T02:20:14.156Z,990.52
2019-01-27T02:21:14.145Z,990.49
2019-01-27T02:22:14.134Z,990.44
2019-01-27T02:23:14.121Z,990.42
2019-01-27T02:24:14.110Z,990.40
2019-01-27T02:25:14.099Z,990.39
2019-01-27T02:26:14.090Z,990.38
2019-01-27T02:27:14.079Z,990.42
2019-01-27T02:28:14.094Z,990.39
2019-01-27T02:29:14.056Z,990.39
2019-01-27T02:30:14.046Z,990.36
2019-01-27T02:31:14.036Z,990.34
2019-01-27T02:32:14.035Z,990.31
2019-01-27T02:33:14.014Z,990.30
2019-01-27T02:34:14.042Z,990.27
2019-01-27T02:35:13.990Z,990.28
2019-01-27T02:36:13.981Z,990.23
2019-01-27T02:37:13.967Z,990.25
2019-01-27T02:38:13.959Z,990.20
2019-01-27T02:39:13.946Z,990.20
2019-01-27T02:40:13.939Z,990.18
2019-01-27T02:41:13.926Z,990.11
2019-01-27T02:42:13.915Z,990.05
2019-01-27T02:43:13.906Z,989.99
2019-01-27T02:44:13.892Z,990.02
2019-01-27T02:45:13.883Z,990.00
2019-01-27T02:46:13.870Z,989.92
2019-01-27T02:47:13.862Z,989.93
2019-01-27T02:48:13.852Z,989.86
2019-01-27T02:49:13.836Z,989.91
2019-01-27T02:50:13.825Z,989.87
2019-01-27T02:51:13.820Z,989.81
2019-01-27T02:52:13.804Z,989.84
2019-01-27T02:53:13.794Z,989.77
2019-01-27T02:54:13.782Z,989.74
2019-01-27T02:55:13.772Z,989.69
2019-01-27T02:56:13.769Z,989.69
2019-01-27T02:57:13.752Z,989.64
2019-01-27T02:58:13.738Z,989.63
2019-01-27T02:59:13.728Z,989.66
2019-01-27T03:00:13.717Z,989.64
2019-01-27T03:01:13.706Z,989.62
2019-01-27T03:02:13.695Z,989.60
2019-01-27T03:03:13.686Z,989.58
2019-01-27T03:04:13.673Z,989.58
2019-01-27T03:05:13.662Z,989.56
2019-01-27T03:06:13.651Z,989.52
2019-01-27T03:07:13.641Z,989.51
2019-01-27T03:08:13.634Z,989.48
2019-01-27T03:09:13.622Z,989.48
2019-01-27T03:10:13.610Z,989.38
2019-01-27T03:11:13.599Z,989.41
2019-01-27T03:12:13.585Z,989.32
2019-01-27T03:13:13.576Z,989.32
2019-01-27T03:14:13.563Z,989.34
2019-01-27T03:15:13.554Z,989.33
2019-01-27T03:16:13.541Z,989.32
2019-01-27T03:17:13.531Z,989.26
2019-01-27T03:18:13.521Z,989.24
2019-01-27T03:19:13.515Z,989.26
2019-01-27T03:20:13.499Z,989.23
2019-01-27T03:21:13.489Z,989.20
2019-01-27T03:22:13.475Z,989.26
2019-01-27T03:23:13.480Z,989.26
2019-01-27T03:24:13.455Z,989.27
2019-01-27T03:25:13.449Z,989.22
2019-01-27T03:26:13.435Z,989.21
2019-01-27T03:27:13.422Z,989.25
2019-01-27T03:28:13.409Z,989.20
2019-01-27T03:29:13.399Z,989.21
2019-01-27T03:30:13.407Z,989.20
2019-01-27T03:31:13.381Z,989.18
2019-01-27T03:32:13.366Z,989.20
2019-01-27T03:33:13.361Z,989.15
2019-01-27T03:34:13.344Z,989.14
2019-01-27T03:35:13.333Z,989.19
2019-01-27T03:36:13.322Z,989.12
2019-01-27T03:37:13.310Z,989.16
2019-01-27T03:38:13.300Z,989.14
2019-01-27T03:39:13.290Z,989.10
2019-01-27T03:40:13.279Z,989.07
2019-01-27T03:41:13.268Z,989.06
2019-01-27T03:42:13.255Z,989.07
2019-01-27T03:43:13.257Z,989.05
2019-01-27T03:44:13.236Z,989.09
2019-01-27T03:45:13.225Z,989.02
2019-01-27T03:46:13.218Z,989.06
2019-01-27T03:47:13.212Z,989.00
2019-01-27T03:48:13.192Z,989.02
2019-01-27T03:49:13.180Z,989.02
2019-01-27T03:50:13.170Z,989.00
2019-01-27T03:51:13.161Z,988.95
2019-01-27T03:52:13.148Z,988.94
2019-01-27T03:53:13.135Z,988.89
2019-01-27T03:54:13.124Z,988.84
2019-01-27T03:55:13.114Z,988.90
2019-01-27T03:56:13.107Z,988.90
2019-01-27T03:57:13.095Z,988.85
2019-01-27T03:58:13.083Z,988.82
2019-01-27T03:59:13.072Z,988.84
2019-01-27T04:00:13.075Z,988.80
2019-01-27T04:01:13.049Z,988.79
2019-01-27T04:02:13.041Z,988.80
2019-01-27T04:03:13.027Z,988.74
2019-01-27T04:04:13.020Z,988.74
2019-01-27T04:05:13.005Z,988.67
2019-01-27T04:06:12.995Z,988.59
2019-01-27T04:07:12.982Z,988.60
2019-01-27T04:08:12.977Z,988.60
2019-01-27T04:09:12.964Z,988.57
2019-01-27T04:10:12.951Z,988.55
2019-01-27T04:11:12.944Z,988.50
2019-01-27T04:12:12.932Z,988.51
2019-01-27T04:13:12.919Z,988.51
2019-01-27T04:14:12.909Z,988.50
2019-01-27T04:15:12.895Z,988.44
2019-01-27T04:16:12.886Z,988.47
2019-01-27T04:17:12.875Z,988.46
2019-01-27T04:18:12.866Z,988.45
2019-01-27T04:19:12.852Z,988.42
2019-01-27T04:20:12.842Z,988.43
2019-01-27T04:21:12.835Z,988.40
2019-01-27T04:22:12.819Z,988.34
2019-01-27T04:23:12.810Z,988.34
2019-01-27T04:24:12.799Z,988.35
2019-01-27T04:25:12.786Z,988.32
2019-01-27T04:26:12.776Z,988.27
2019-01-27T04:27:12.764Z,988.28
2019-01-27T04:28:12.754Z,988.22
2019-01-27T04:29:12.745Z,988.21
2019-01-27T04:30:12.730Z,988.21
2019-01-27T04:31:12.721Z,988.21
2019-01-27T04:32:12.712Z,988.24
2019-01-27T04:33:12.699Z,988.25
2019-01-27T04:34:12.687Z,988.24
2019-01-27T04:35:12.679Z,988.25
2019-01-27T04:36:12.666Z,988.21
2019-01-27T04:37:12.656Z,988.21
2019-01-27T04:38:12.645Z,988.20
2019-01-27T04:39:12.632Z,988.16
2019-01-27T04:40:12.624Z,988.17
2019-01-27T04:41:12.612Z,988.13
2019-01-27T04:42:12.600Z,988.13
2019-01-27T04:43:12.588Z,988.15
2019-01-27T04:44:12.577Z,988.10
2019-01-27T04:45:12.567Z,988.08
2019-01-27T04:46:12.556Z,988.06
2019-01-27T04:47:12.544Z,988.07
2019-01-27T04:48:12.535Z,988.01
2019-01-27T04:49:12.524Z,988.06
2019-01-27T04:50:12.514Z,987.98
2019-01-27T04:51:12.501Z,988.03
2019-01-27T04:52:12.493Z,987.99
2019-01-27T04:53:12.493Z,987.96
2019-01-27T04:54:12.469Z,988.01
2019-01-27T04:55:12.458Z,987.97
2019-01-27T04:56:12.447Z,987.94
2019-01-27T04:57:12.436Z,987.90
2019-01-27T04:58:12.426Z,987.91
2019-01-27T04:59:12.419Z,987.87
2019-01-27T05:00:12.404Z,987.85
2019-01-27T05:01:12.392Z,987.83
2019-01-27T05:02:12.383Z,987.81
2019-01-27T05:03:12.371Z,987.81
2019-01-27T05:04:12.362Z,987.88
2019-01-27T05:05:12.349Z,987.79
2019-01-27T05:06:12.342Z,987.82
2019-01-27T05:07:12.341Z,987.77
2019-01-27T05:08:12.317Z,987.79
2019-01-27T05:09:12.306Z,987.78
2019-01-27T05:10:12.294Z,987.77
2019-01-27T05:11:12.284Z,987.84
2019-01-27T05:12:12.273Z,987.77
2019-01-27T05:13:12.262Z,987.75
2019-01-27T05:14:12.250Z,987.72
2019-01-27T05:15:12.239Z,987.73
2019-01-27T05:16:12.235Z,987.67
2019-01-27T05:17:12.218Z,987.65
2019-01-27T05:18:12.211Z,987.62
2019-01-27T05:19:12.197Z,987.58
2019-01-27T05:20:12.185Z,987.60
2019-01-27T05:21:12.172Z,987.56
2019-01-27T05:22:12.161Z,987.53
2019-01-27T05:23:12.153Z,987.55
2019-01-27T05:24:12.141Z,987.48
2019-01-27T05:25:12.131Z,987.50
2019-01-27T05:26:12.122Z,987.54
2019-01-27T05:27:12.108Z,987.49
2019-01-27T05:28:12.097Z,987.50
2019-01-27T05:29:12.086Z,987.51
2019-01-27T05:30:12.074Z,987.50
2019-01-27T05:31:12.063Z,987.44
2019-01-27T05:32:12.054Z,987.47
2019-01-27T05:33:12.042Z,987.42
2019-01-27T05:34:12.031Z,987.44
2019-01-27T05:35:12.021Z,987.43
2019-01-27T05:36:12.011Z,987.42
2019-01-27T05:37:11.998Z,987.44
2019-01-27T05:38:11.989Z,987.45
2019-01-27T05:39:11.976Z,987.41
2019-01-27T05:40:11.963Z,987.42
2019-01-27T05:41:11.955Z,987.36
2019-01-27T05:42:11.944Z,987.36
2019-01-27T05:43:11.932Z,987.28
2019-01-27T05:44:11.922Z,987.30
2019-01-27T05:45:11.911Z,987.27
2019-01-27T05:46:11.902Z,987.18
2019-01-27T05:47:11.890Z,987.19
2019-01-27T05:48:11.877Z,987.17
2019-01-27T05:49:11.867Z,987.22
2019-01-27T05:50:30.015Z,987.21
2019-01-27T05:51:53.897Z,987.15
2019-01-27T05:52:53.878Z,987.13
2019-01-27T05:53:53.867Z,987.16
2019-01-27T05:54:53.863Z,987.15
2019-01-27T05:55:53.843Z,987.16
2019-01-27T05:56:56.606Z,987.19
2019-01-27T05:57:53.822Z,987.19
2019-01-27T05:58:53.811Z,987.19
2019-01-27T05:59:53.801Z,987.16
2019-01-27T06:00:53.790Z,987.16
2019-01-27T06:01:53.803Z,987.13
2019-01-27T06:02:53.768Z,987.09
2019-01-27T06:03:53.755Z,987.07
2019-01-27T06:04:53.746Z,987.09
2019-01-27T06:05:53.735Z,987.09
2019-01-27T06:06:53.721Z,987.07
2019-01-27T06:07:53.714Z,987.05
2019-01-27T06:08:53.704Z,987.02
2019-01-27T06:09:53.690Z,987.03
2019-01-27T06:10:53.679Z,987.07
2019-01-27T06:11:53.667Z,987.02
2019-01-27T06:12:53.657Z,987.03
2019-01-27T06:13:53.652Z,987.02
2019-01-27T06:14:53.640Z,986.97
2019-01-27T06:15:53.624Z,986.95
2019-01-27T06:16:53.612Z,986.89
2019-01-27T06:17:53.605Z,986.81
2019-01-27T06:18:53.591Z,986.85
2019-01-27T06:19:53.587Z,986.79
2019-01-27T06:20:53.571Z,986.79
2019-01-27T06:21:53.560Z,986.77
2019-01-27T06:22:53.547Z,986.75
2019-01-27T06:23:53.538Z,986.74
2019-01-27T06:24:53.528Z,986.72
2019-01-27T06:25:53.532Z,986.68
2019-01-27T06:26:53.548Z,986.71
2019-01-27T06:27:53.495Z,986.66
2019-01-27T06:28:53.484Z,986.67
2019-01-27T06:29:53.472Z,986.65
2019-01-27T06:30:53.456Z,986.66
2019-01-27T06:31:53.447Z,986.67
2019-01-27T06:32:53.435Z,986.63
2019-01-27T06:33:53.431Z,986.60
2019-01-27T06:34:53.415Z,986.59
2019-01-27T06:35:53.402Z,986.57
2019-01-27T06:36:53.397Z,986.61
2019-01-27T06:37:53.379Z,986.60
2019-01-27T06:38:53.368Z,986.59
2019-01-27T06:39:53.357Z,986.65
2019-01-27T06:40:53.349Z,986.59
2019-01-27T06:41:53.336Z,986.63
2019-01-27T06:42:53.326Z,986.60
2019-01-27T06:43:53.312Z,986.57
2019-01-27T06:44:53.321Z,986.57
2019-01-27T06:45:53.293Z,986.54
2019-01-27T06:46:53.280Z,986.56
2019-01-27T06:47:53.271Z,986.52
2019-01-27T06:48:53.282Z,986.51
2019-01-27T06:49:53.246Z,986.56
2019-01-27T06:50:53.238Z,986.52
2019-01-27T06:51:53.226Z,986.50
2019-01-27T06:52:53.220Z,986.50
2019-01-27T06:53:53.205Z,986.48
2019-01-27T06:54:53.199Z,986.50
2019-01-27T06:55:53.182Z,986.53
2019-01-27T06:56:53.174Z,986.51
2019-01-27T06:57:53.159Z,986.51
2019-01-27T06:58:53.149Z,986.48
2019-01-27T06:59:53.140Z,986.43
2019-01-27T07:00:53.125Z,986.39
2019-01-27T07:01:53.115Z,986.38
2019-01-27T07:02:53.109Z,986.39
2019-01-27T07:03:53.344Z,986.41
2019-01-27T07:04:53.087Z,986.41
2019-01-27T07:05:53.070Z,986.40
2019-01-27T07:06:53.072Z,986.39
2019-01-27T07:07:53.049Z,986.36
2019-01-27T07:08:53.037Z,986.42
2019-01-27T07:09:53.029Z,986.39
2019-01-27T07:10:53.017Z,986.42
2019-01-27T07:11:53.013Z,986.38
2019-01-27T07:12:52.996Z,986.33
2019-01-27T07:13:52.984Z,986.30
2019-01-27T07:14:52.976Z,986.28
2019-01-27T07:15:52.960Z,986.32
2019-01-27T07:16:52.949Z,986.32
2019-01-27T07:17:52.939Z,986.29
2019-01-27T07:18:52.928Z,986.31
2019-01-27T07:19:52.918Z,986.29
2019-01-27T07:20:52.905Z,986.27
2019-01-27T07:21:52.894Z,986.26
2019-01-27T07:22:52.882Z,986.26
2019-01-27T07:23:52.876Z,986.29
2019-01-27T07:24:52.862Z,986.26
2019-01-27T07:25:52.853Z,986.27
2019-01-27T07:26:52.845Z,986.16
2019-01-27T07:27:52.826Z,986.17
2019-01-27T07:28:52.817Z,986.18
2019-01-27T07:29:52.809Z,986.15
2019-01-27T07:30:52.795Z,986.16
2019-01-27T07:31:52.788Z,986.11
2019-01-27T07:32:52.773Z,986.13
2019-01-27T07:33:52.763Z,986.17
2019-01-27T07:34:52.755Z,986.12
2019-01-27T07:35:52.756Z,986.13
2019-01-27T07:36:52.729Z,986.10
2019-01-27T07:37:52.717Z,986.12
2019-01-27T07:38:52.708Z,986.11
2019-01-27T07:39:53.812Z,986.08
2019-01-27T07:40:52.682Z,986.06
2019-01-27T07:41:52.674Z,986.06
2019-01-27T07:42:52.659Z,986.02
2019-01-27T07:43:52.651Z,985.99
2019-01-27T07:44:52.638Z,985.97
2019-01-27T07:45:52.626Z,985.96
2019-01-27T07:46:52.617Z,985.93
2019-01-27T07:47:52.607Z,985.95
2019-01-27T07:48:52.593Z,985.96
2019-01-27T07:49:52.586Z,985.94
2019-01-27T07:50:52.572Z,985.89
2019-01-27T07:51:52.563Z,985.92
2019-01-27T07:52:52.556Z,985.94
2019-01-27T07:53:52.540Z,985.89
2019-01-27T07:54:52.531Z,985.90
2019-01-27T07:55:52.522Z,985.88
2019-01-27T07:56:52.508Z,985.79
2019-01-27T07:57:52.495Z,985.84
2019-01-27T07:58:52.486Z,985.83
2019-01-27T07:59:52.473Z,985.82
2019-01-27T08:00:52.461Z,985.83
2019-01-27T08:01:52.452Z,985.85
2019-01-27T08:02:52.440Z,985.79
2019-01-27T08:03:52.430Z,985.76
2019-01-27T08:04:52.424Z,985.75
2019-01-27T08:05:52.406Z,985.76
2019-01-27T08:06:52.395Z,985.75
2019-01-27T08:07:52.383Z,985.76
2019-01-27T08:08:52.376Z,985.72
2019-01-27T08:09:52.366Z,985.76
2019-01-27T08:10:52.349Z,985.77
2019-01-27T08:11:52.338Z,985.79
2019-01-27T08:12:52.329Z,985.80
2019-01-27T08:13:52.318Z,985.76
2019-01-27T08:14:52.316Z,985.77
2019-01-27T08:15:52.302Z,985.74
2019-01-27T08:16:52.285Z,985.68
2019-01-27T08:17:52.273Z,985.68
2019-01-27T08:18:52.263Z,985.72
2019-01-27T08:19:52.251Z,985.66
2019-01-27T08:20:52.240Z,985.62
2019-01-27T08:21:52.235Z,985.64
2019-01-27T08:22:52.223Z,985.67
2019-01-27T08:23:52.206Z,985.65
2019-01-27T08:24:52.196Z,985.63
2019-01-27T08:25:52.185Z,985.65
2019-01-27T08:26:52.175Z,985.61
2019-01-27T08:27:52.164Z,985.58
2019-01-27T08:28:52.153Z,985.60
2019-01-27T08:29:52.144Z,985.58
2019-01-27T08:30:52.128Z,985.55
2019-01-27T08:31:52.116Z,985.58
2019-01-27T08:32:52.107Z,985.58
2019-01-27T08:33:52.101Z,985.55
2019-01-27T08:34:52.085Z,985.54
2019-01-27T08:35:52.082Z,985.54
2019-01-27T08:36:52.062Z,985.50
2019-01-27T08:37:52.051Z,985.53
2019-01-27T08:38:52.040Z,985.53
2019-01-27T08:39:52.045Z,985.51
2019-01-27T08:40:52.020Z,985.52
2019-01-27T08:41:52.011Z,985.49
2019-01-27T08:42:51.995Z,985.49
2019-01-27T08:43:51.986Z,985.48
2019-01-27T08:44:51.979Z,985.46
2019-01-27T08:45:51.969Z,985.42
2019-01-27T08:46:51.958Z,985.43
2019-01-27T08:47:51.941Z,985.44
2019-01-27T08:48:51.930Z,985.42
2019-01-27T08:49:51.923Z,985.41
2019-01-27T08:50:51.915Z,985.35
2019-01-27T08:51:51.910Z,985.39
2019-01-27T08:52:51.888Z,985.39
2019-01-27T08:53:51.875Z,985.33
2019-01-27T08:54:51.866Z,985.33
2019-01-27T08:55:51.857Z,985.36
2019-01-27T08:56:51.841Z,985.35
2019-01-27T08:57:51.830Z,985.37
2019-01-27T08:58:51.825Z,985.32
2019-01-27T08:59:51.816Z,985.32
2019-01-27T09:00:51.795Z,985.29
2019-01-27T09:01:51.786Z,985.39
2019-01-27T09:02:51.778Z,985.36
2019-01-27T09:03:51.763Z,985.31
2019-01-27T09:04:51.754Z,985.30
2019-01-27T09:05:51.780Z,985.30
2019-01-27T09:06:51.929Z,985.33
2019-01-27T09:07:51.718Z,985.28
2019-01-27T09:08:51.712Z,985.29
2019-01-27T09:09:51.704Z,985.24
2019-01-27T09:10:51.701Z,985.22
2019-01-27T09:11:51.675Z,985.19
2019-01-27T09:12:51.663Z,985.21
2019-01-27T09:13:51.654Z,985.18
2019-01-27T09:14:51.652Z,985.19
2019-01-27T09:15:51.629Z,985.16
2019-01-27T09:16:51.618Z,985.18
2019-01-27T09:17:51.606Z,985.20
2019-01-27T09:18:51.597Z,985.12
2019-01-27T09:19:51.588Z,985.14
2019-01-27T09:20:51.582Z,985.11
2019-01-27T09:21:51.574Z,985.08
2019-01-27T09:22:51.551Z,985.11
2019-01-27T09:23:51.539Z,985.07
2019-01-27T09:24:51.530Z,985.07
2019-01-27T09:25:51.533Z,985.07
2019-01-27T09:26:51.513Z,985.08
2019-01-27T09:27:51.501Z,985.08
2019-01-27T09:28:51.487Z,985.04
2019-01-27T09:29:51.474Z,985.07
2019-01-27T09:30:51.464Z,985.07
2019-01-27T09:31:51.452Z,985.05
2019-01-27T09:32:52.959Z,985.00
2019-01-27T09:33:51.438Z,985.02
2019-01-27T09:34:51.417Z,984.96
2019-01-27T09:35:51.408Z,984.98
2019-01-27T09:36:51.396Z,984.95
2019-01-27T09:37:51.385Z,984.98
2019-01-27T09:38:51.377Z,985.00
2019-01-27T09:39:51.365Z,984.97
2019-01-27T09:40:51.354Z,984.98
2019-01-27T09:41:51.344Z,985.00
2019-01-27T09:42:51.331Z,984.93
2019-01-27T09:43:51.325Z,984.97
2019-01-27T09:44:51.308Z,985.00
2019-01-27T09:46:05.032Z,984.94
2019-01-27T09:46:52.285Z,984.94
2019-01-27T09:47:51.273Z,984.91
2019-01-27T09:48:51.265Z,984.89
2019-01-27T09:49:51.257Z,984.89
2019-01-27T09:50:51.245Z,984.85
2019-01-27T09:51:51.230Z,984.81
2019-01-27T09:52:51.220Z,984.88
2019-01-27T09:53:51.210Z,984.80
2019-01-27T09:54:51.201Z,984.83
2019-01-27T09:55:51.184Z,984.84
2019-01-27T09:56:51.180Z,984.85
2019-01-27T09:57:51.163Z,984.83
2019-01-27T09:58:51.153Z,984.84
2019-01-27T09:59:51.141Z,984.85
2019-01-27T10:00:51.128Z,984.81
2019-01-27T10:01:51.147Z,984.75
2019-01-27T10:02:51.775Z,984.78
2019-01-27T10:03:51.097Z,984.78
2019-01-27T10:04:51.086Z,984.76
2019-01-27T10:05:51.073Z,984.77
2019-01-27T10:06:51.066Z,984.74
2019-01-27T10:07:51.071Z,984.69
2019-01-27T10:08:51.039Z,984.73
2019-01-27T10:09:51.030Z,984.69
2019-01-27T10:10:51.019Z,984.67
2019-01-27T10:11:51.008Z,984.68
2019-01-27T10:12:50.997Z,984.69
2019-01-27T10:13:50.989Z,984.68
2019-01-27T10:14:50.978Z,984.68
2019-01-27T10:15:50.967Z,984.63
2019-01-27T10:16:50.952Z,984.61
2019-01-27T10:17:50.941Z,984.62
2019-01-27T10:18:50.935Z,984.58
2019-01-27T10:19:50.921Z,984.61
2019-01-27T10:20:50.907Z,984.59
2019-01-27T10:21:50.897Z,984.62
2019-01-27T10:22:50.887Z,984.58
2019-01-27T10:23:50.878Z,984.60
2019-01-27T10:24:50.870Z,984.58
2019-01-27T10:25:50.862Z,984.52
2019-01-27T10:26:50.841Z,984.49
2019-01-27T10:27:50.829Z,984.48
2019-01-27T10:28:50.820Z,984.51
2019-01-27T10:29:50.808Z,984.49
2019-01-27T10:30:50.796Z,984.46
2019-01-27T10:31:50.785Z,984.38
2019-01-27T10:32:50.775Z,984.38
2019-01-27T10:33:50.772Z,984.40
2019-01-27T10:34:50.753Z,984.36
2019-01-27T10:35:50.740Z,984.37
2019-01-27T10:36:50.734Z,984.35
2019-01-27T10:37:50.719Z,984.37
2019-01-27T10:38:50.711Z,984.33
2019-01-27T10:39:50.696Z,984.29
2019-01-27T10:40:50.687Z,984.29
2019-01-27T10:41:50.698Z,984.30
2019-01-27T10:42:50.666Z,984.30
2019-01-27T10:43:50.650Z,984.31
2019-01-27T10:44:50.639Z,984.32
2019-01-27T10:45:50.629Z,984.29
2019-01-27T10:46:50.621Z,984.31
2019-01-27T10:47:50.611Z,984.27
2019-01-27T10:48:50.602Z,984.23
2019-01-27T10:49:50.586Z,984.25
2019-01-27T10:50:50.573Z,984.27
2019-01-27T10:51:50.568Z,984.26
2019-01-27T10:52:50.553Z,984.27
2019-01-27T10:53:50.563Z,984.24
2019-01-27T10:54:50.536Z,984.22
2019-01-27T10:55:50.517Z,984.24
2019-01-27T10:56:50.513Z,984.17
2019-01-27T10:57:50.499Z,984.21
2019-01-27T10:58:50.491Z,984.17
2019-01-27T10:59:50.472Z,984.16
2019-01-27T11:00:50.463Z,984.09
2019-01-27T11:01:50.453Z,984.07
2019-01-27T11:02:50.439Z,984.06
2019-01-27T11:03:50.429Z,984.01
2019-01-27T11:04:50.416Z,984.00
2019-01-27T11:05:50.405Z,983.98
2019-01-27T11:06:50.396Z,983.92
2019-01-27T11:07:50.383Z,983.97
2019-01-27T11:08:50.373Z,983.91
2019-01-27T11:09:50.362Z,983.97
2019-01-27T11:10:50.370Z,983.95
2019-01-27T11:11:50.339Z,983.93
2019-01-27T11:12:50.328Z,983.90
2019-01-27T11:13:50.317Z,983.91
2019-01-27T11:14:50.306Z,983.93
2019-01-27T11:15:50.304Z,983.98
2019-01-27T11:16:50.300Z,983.93
2019-01-27T11:17:50.301Z,983.94
2019-01-27T11:18:50.262Z,983.92
2019-01-27T11:19:50.250Z,983.88
2019-01-27T11:20:50.246Z,983.90
2019-01-27T11:21:50.230Z,983.91
2019-01-27T11:22:50.222Z,983.90
2019-01-27T11:23:50.204Z,983.91
2019-01-27T11:24:50.194Z,983.85
2019-01-27T11:25:50.183Z,983.81
2019-01-27T11:26:50.194Z,983.87
2019-01-27T11:27:50.159Z,983.81
2019-01-27T11:28:50.150Z,983.79
2019-01-27T11:29:50.137Z,983.77
2019-01-27T11:30:50.133Z,983.79
2019-01-27T11:31:50.121Z,983.75
2019-01-27T11:32:50.109Z,983.73
2019-01-27T11:33:50.106Z,983.67
2019-01-27T11:34:50.084Z,983.73
2019-01-27T11:35:50.104Z,983.72
2019-01-27T11:36:50.059Z,983.70
2019-01-27T11:37:50.070Z,983.64
2019-01-27T11:38:50.038Z,983.55
2019-01-27T11:39:50.028Z,983.60
2019-01-27T11:40:50.027Z,983.58
2019-01-27T11:41:50.006Z,983.58
2019-01-27T11:42:49.994Z,983.54
2019-01-27T11:43:49.981Z,983.53
2019-01-27T11:44:49.972Z,983.50
2019-01-27T11:45:49.964Z,983.47
2019-01-27T11:46:49.949Z,983.50
2019-01-27T11:47:49.936Z,983.43
2019-01-27T11:48:49.925Z,983.42
2019-01-27T11:49:49.915Z,983.41
2019-01-27T11:50:49.906Z,983.38
2019-01-27T11:51:49.900Z,983.35
2019-01-27T11:53:08.572Z,983.36
2019-01-27T11:54:32.441Z,983.38
2019-01-27T11:55:32.432Z,983.38
2019-01-27T11:57:14.762Z,983.43
2019-01-27T11:58:14.751Z,983.45
2019-01-27T11:59:14.753Z,983.43
2019-01-27T12:00:14.729Z,983.41
2019-01-27T12:01:14.715Z,983.38
2019-01-27T12:02:14.705Z,983.35
2019-01-27T12:03:14.697Z,983.33
2019-01-27T12:04:14.683Z,983.27
2019-01-27T12:05:14.673Z,983.25
2019-01-27T12:06:14.659Z,983.25
2019-01-27T12:07:14.651Z,983.29
2019-01-27T12:08:14.640Z,983.29
2019-01-27T12:09:14.626Z,983.29
2019-01-27T12:10:14.619Z,983.31
2019-01-27T12:11:14.605Z,983.30
2019-01-27T12:12:14.594Z,983.25
2019-01-27T12:13:14.581Z,983.22
2019-01-27T12:14:14.574Z,983.23
2019-01-27T12:15:14.564Z,983.23
2019-01-27T12:16:14.552Z,983.16
2019-01-27T12:17:14.537Z,983.15
2019-01-27T12:18:14.526Z,983.19
2019-01-27T12:19:14.515Z,983.14
2019-01-27T12:20:14.508Z,983.15
2019-01-27T12:21:14.495Z,983.15
2019-01-27T12:22:14.480Z,983.17
2019-01-27T12:23:14.473Z,983.17
2019-01-27T12:24:14.461Z,983.15
2019-01-27T12:25:14.450Z,983.13
2019-01-27T12:26:14.439Z,983.17
2019-01-27T12:27:14.431Z,983.13
2019-01-27T12:28:14.415Z,983.16
2019-01-27T12:29:14.447Z,983.16
2019-01-27T12:30:14.395Z,983.19